sensor_id;sensor_type;location;lat;lon;timestamp;P1;durP1;ratioP1;P2;durP2;ratioP2
23952;SDS011;12163;49.316;6.092;2023-04-03T00:00:48;4.65;;;2.63;;
23952;SDS011;12163;49.316;6.092;2023-04-03T00:03:16;5.90;;;2.78;;
23952;SDS011;12163;49.316;6.092;2023-04-03T00:05:43;7.00;;;2.70;;
23952;SDS011;12163;49.316;6.092;2023-04-03T00:08:10;4.95;;;2.38;;
23952;SDS011;12163;49.316;6.092;2023-04-03T00:10:37;5.25;;;2.30;;
23952;SDS011;12163;49.316;6.092;2023-04-03T00:13:05;4.90;;;2.60;;
23952;SDS011;12163;49.316;6.092;2023-04-03T00:15:32;4.30;;;2.47;;
23952;SDS011;12163;49.316;6.092;2023-04-03T00:17:59;5.55;;;2.40;;
23952;SDS011;12163;49.316;6.092;2023-04-03T00:20:26;4.75;;;2.58;;
23952;SDS011;12163;49.316;6.092;2023-04-03T00:22:53;7.10;;;2.67;;
23952;SDS011;12163;49.316;6.092;2023-04-03T00:25:20;6.45;;;2.55;;
23952;SDS011;12163;49.316;6.092;2023-04-03T00:27:47;4.43;;;2.45;;
23952;SDS011;12163;49.316;6.092;2023-04-03T00:30:15;5.15;;;2.55;;
23952;SDS011;12163;49.316;6.092;2023-04-03T00:32:44;5.05;;;2.55;;
23952;SDS011;12163;49.316;6.092;2023-04-03T00:35:10;4.30;;;2.45;;
23952;SDS011;12163;49.316;6.092;2023-04-03T00:37:37;5.03;;;2.40;;
23952;SDS011;12163;49.316;6.092;2023-04-03T00:40:04;3.38;;;2.30;;
23952;SDS011;12163;49.316;6.092;2023-04-03T00:42:32;6.82;;;2.22;;
23952;SDS011;12163;49.316;6.092;2023-04-03T00:47:26;10.63;;;2.10;;
23952;SDS011;12163;49.316;6.092;2023-04-03T00:49:54;6.25;;;2.20;;
23952;SDS011;12163;49.316;6.092;2023-04-03T00:52:22;4.28;;;2.20;;
23952;SDS011;12163;49.316;6.092;2023-04-03T00:54:52;4.80;;;1.92;;
23952;SDS011;12163;49.316;6.092;2023-04-03T00:57:22;3.50;;;2.10;;
23952;SDS011;12163;49.316;6.092;2023-04-03T00:59:51;3.85;;;2.08;;
23952;SDS011;12163;49.316;6.092;2023-04-03T01:02:21;3.75;;;1.88;;
23952;SDS011;12163;49.316;6.092;2023-04-03T01:04:48;3.85;;;2.00;;
23952;SDS011;12163;49.316;6.092;2023-04-03T01:07:17;2.92;;;1.85;;
23952;SDS011;12163;49.316;6.092;2023-04-03T01:09:47;2.83;;;1.90;;
23952;SDS011;12163;49.316;6.092;2023-04-03T01:12:20;4.40;;;1.90;;
23952;SDS011;12163;49.316;6.092;2023-04-03T01:14:50;6.43;;;2.10;;
23952;SDS011;12163;49.316;6.092;2023-04-03T01:25:26;4.65;;;1.90;;
23952;SDS011;12163;49.316;6.092;2023-04-03T01:27:53;4.25;;;2.30;;
23952;SDS011;12163;49.316;6.092;2023-04-03T01:30:20;6.78;;;2.20;;
23952;SDS011;12163;49.316;6.092;2023-04-03T01:32:52;6.85;;;2.28;;
23952;SDS011;12163;49.316;6.092;2023-04-03T01:35:19;5.03;;;2.30;;
23952;SDS011;12163;49.316;6.092;2023-04-03T01:37:45;4.07;;;2.33;;
23952;SDS011;12163;49.316;6.092;2023-04-03T01:40:12;4.65;;;2.53;;
23952;SDS011;12163;49.316;6.092;2023-04-03T01:42:39;5.25;;;2.45;;
23952;SDS011;12163;49.316;6.092;2023-04-03T01:45:05;4.15;;;2.13;;
23952;SDS011;12163;49.316;6.092;2023-04-03T01:47:32;3.90;;;2.60;;
23952;SDS011;12163;49.316;6.092;2023-04-03T01:49:59;5.28;;;3.03;;
23952;SDS011;12163;49.316;6.092;2023-04-03T01:52:26;5.45;;;2.60;;
23952;SDS011;12163;49.316;6.092;2023-04-03T01:54:52;4.65;;;2.53;;
23952;SDS011;12163;49.316;6.092;2023-04-03T01:57:19;4.13;;;2.30;;
23952;SDS011;12163;49.316;6.092;2023-04-03T01:59:46;4.93;;;2.60;;
23952;SDS011;12163;49.316;6.092;2023-04-03T02:02:12;4.35;;;2.38;;
23952;SDS011;12163;49.316;6.092;2023-04-03T02:04:40;8.68;;;2.80;;
23952;SDS011;12163;49.316;6.092;2023-04-03T02:07:07;4.95;;;2.60;;
23952;SDS011;12163;49.316;6.092;2023-04-03T02:09:33;5.15;;;2.55;;
23952;SDS011;12163;49.316;6.092;2023-04-03T02:12:01;5.05;;;2.63;;
23952;SDS011;12163;49.316;6.092;2023-04-03T02:14:27;5.85;;;2.75;;
23952;SDS011;12163;49.316;6.092;2023-04-03T02:16:54;4.72;;;2.58;;
23952;SDS011;12163;49.316;6.092;2023-04-03T02:19:21;6.75;;;2.45;;
23952;SDS011;12163;49.316;6.092;2023-04-03T02:21:48;3.85;;;2.55;;
23952;SDS011;12163;49.316;6.092;2023-04-03T02:24:14;5.88;;;2.60;;
23952;SDS011;12163;49.316;6.092;2023-04-03T02:26:41;6.05;;;2.55;;
23952;SDS011;12163;49.316;6.092;2023-04-03T02:29:08;4.47;;;2.58;;
23952;SDS011;12163;49.316;6.092;2023-04-03T02:31:34;4.03;;;2.58;;
23952;SDS011;12163;49.316;6.092;2023-04-03T02:34:01;4.53;;;2.90;;
23952;SDS011;12163;49.316;6.092;2023-04-03T02:36:27;3.92;;;2.55;;
23952;SDS011;12163;49.316;6.092;2023-04-03T02:38:56;4.57;;;2.60;;
23952;SDS011;12163;49.316;6.092;2023-04-03T02:41:23;3.60;;;2.70;;
23952;SDS011;12163;49.316;6.092;2023-04-03T02:43:51;4.10;;;2.80;;
23952;SDS011;12163;49.316;6.092;2023-04-03T02:46:18;4.60;;;2.88;;
23952;SDS011;12163;49.316;6.092;2023-04-03T02:48:45;5.30;;;2.95;;
23952;SDS011;12163;49.316;6.092;2023-04-03T02:51:11;5.90;;;2.78;;
23952;SDS011;12163;49.316;6.092;2023-04-03T02:53:38;4.95;;;2.25;;
23952;SDS011;12163;49.316;6.092;2023-04-03T02:56:04;4.25;;;2.60;;
23952;SDS011;12163;49.316;6.092;2023-04-03T02:58:31;5.80;;;2.40;;
23952;SDS011;12163;49.316;6.092;2023-04-03T03:00:58;4.43;;;2.38;;
23952;SDS011;12163;49.316;6.092;2023-04-03T03:03:26;3.95;;;2.60;;
23952;SDS011;12163;49.316;6.092;2023-04-03T03:06:08;6.47;;;2.90;;
23952;SDS011;12163;49.316;6.092;2023-04-03T03:08:40;4.68;;;2.55;;
23952;SDS011;12163;49.316;6.092;2023-04-03T03:11:07;3.92;;;2.80;;
23952;SDS011;12163;49.316;6.092;2023-04-03T03:13:35;4.35;;;3.00;;
23952;SDS011;12163;49.316;6.092;2023-04-03T03:16:02;9.20;;;3.00;;
23952;SDS011;12163;49.316;6.092;2023-04-03T03:18:29;7.85;;;2.53;;
23952;SDS011;12163;49.316;6.092;2023-04-03T03:20:57;5.85;;;3.10;;
23952;SDS011;12163;49.316;6.092;2023-04-03T03:23:25;6.30;;;3.28;;
23952;SDS011;12163;49.316;6.092;2023-04-03T03:25:56;5.15;;;3.33;;
23952;SDS011;12163;49.316;6.092;2023-04-03T03:28:25;6.13;;;3.20;;
23952;SDS011;12163;49.316;6.092;2023-04-03T03:30:51;4.25;;;3.17;;
23952;SDS011;12163;49.316;6.092;2023-04-03T03:33:18;6.55;;;2.88;;
23952;SDS011;12163;49.316;6.092;2023-04-03T03:35:45;5.50;;;2.92;;
23952;SDS011;12163;49.316;6.092;2023-04-03T03:38:12;5.63;;;2.90;;
23952;SDS011;12163;49.316;6.092;2023-04-03T03:40:39;6.47;;;2.75;;
23952;SDS011;12163;49.316;6.092;2023-04-03T03:43:05;5.38;;;3.03;;
23952;SDS011;12163;49.316;6.092;2023-04-03T03:45:32;6.38;;;2.90;;
23952;SDS011;12163;49.316;6.092;2023-04-03T03:47:58;5.18;;;2.60;;
23952;SDS011;12163;49.316;6.092;2023-04-03T03:50:25;6.95;;;2.88;;
23952;SDS011;12163;49.316;6.092;2023-04-03T03:52:52;6.60;;;2.85;;
23952;SDS011;12163;49.316;6.092;2023-04-03T03:55:18;7.20;;;2.45;;
23952;SDS011;12163;49.316;6.092;2023-04-03T03:57:45;4.88;;;2.47;;
23952;SDS011;12163;49.316;6.092;2023-04-03T04:00:11;4.00;;;2.47;;
23952;SDS011;12163;49.316;6.092;2023-04-03T04:02:38;7.25;;;2.70;;
23952;SDS011;12163;49.316;6.092;2023-04-03T04:05:05;4.68;;;2.63;;
23952;SDS011;12163;49.316;6.092;2023-04-03T04:07:32;5.82;;;2.47;;
23952;SDS011;12163;49.316;6.092;2023-04-03T04:09:59;3.70;;;2.60;;
23952;SDS011;12163;49.316;6.092;2023-04-03T04:12:26;4.70;;;2.42;;
23952;SDS011;12163;49.316;6.092;2023-04-03T04:14:52;6.63;;;2.53;;
23952;SDS011;12163;49.316;6.092;2023-04-03T04:17:19;5.25;;;2.30;;
23952;SDS011;12163;49.316;6.092;2023-04-03T04:19:46;5.90;;;2.50;;
23952;SDS011;12163;49.316;6.092;2023-04-03T04:22:12;4.75;;;2.38;;
23952;SDS011;12163;49.316;6.092;2023-04-03T04:24:39;6.25;;;2.50;;
23952;SDS011;12163;49.316;6.092;2023-04-03T04:27:06;7.90;;;3.00;;
23952;SDS011;12163;49.316;6.092;2023-04-03T04:29:32;5.43;;;2.60;;
23952;SDS011;12163;49.316;6.092;2023-04-03T04:32:02;5.47;;;2.53;;
23952;SDS011;12163;49.316;6.092;2023-04-03T04:34:30;6.03;;;2.08;;
23952;SDS011;12163;49.316;6.092;2023-04-03T04:36:56;4.43;;;2.70;;
23952;SDS011;12163;49.316;6.092;2023-04-03T04:39:23;6.97;;;2.50;;
23952;SDS011;12163;49.316;6.092;2023-04-03T04:41:50;6.78;;;2.85;;
23952;SDS011;12163;49.316;6.092;2023-04-03T04:44:17;8.57;;;2.65;;
23952;SDS011;12163;49.316;6.092;2023-04-03T04:46:44;5.13;;;2.35;;
23952;SDS011;12163;49.316;6.092;2023-04-03T04:49:10;4.65;;;2.40;;
23952;SDS011;12163;49.316;6.092;2023-04-03T04:51:37;5.45;;;2.55;;
23952;SDS011;12163;49.316;6.092;2023-04-03T04:54:16;4.25;;;2.55;;
23952;SDS011;12163;49.316;6.092;2023-04-03T04:56:43;5.38;;;2.30;;
23952;SDS011;12163;49.316;6.092;2023-04-03T04:59:09;3.50;;;2.40;;
23952;SDS011;12163;49.316;6.092;2023-04-03T05:01:36;8.38;;;2.17;;
23952;SDS011;12163;49.316;6.092;2023-04-03T05:04:03;4.20;;;1.88;;
23952;SDS011;12163;49.316;6.092;2023-04-03T05:06:30;4.30;;;2.15;;
23952;SDS011;12163;49.316;6.092;2023-04-03T05:08:58;3.90;;;1.95;;
23952;SDS011;12163;49.316;6.092;2023-04-03T05:11:25;9.50;;;1.70;;
23952;SDS011;12163;49.316;6.092;2023-04-03T05:13:52;3.90;;;1.98;;
23952;SDS011;12163;49.316;6.092;2023-04-03T05:16:18;10.50;;;2.50;;
23952;SDS011;12163;49.316;6.092;2023-04-03T05:18:45;5.38;;;2.13;;
23952;SDS011;12163;49.316;6.092;2023-04-03T05:21:12;6.28;;;1.70;;
23952;SDS011;12163;49.316;6.092;2023-04-03T05:23:38;4.32;;;1.90;;
23952;SDS011;12163;49.316;6.092;2023-04-03T05:26:05;2.83;;;1.90;;
23952;SDS011;12163;49.316;6.092;2023-04-03T05:28:32;3.08;;;2.10;;
23952;SDS011;12163;49.316;6.092;2023-04-03T05:30:59;3.78;;;2.00;;
23952;SDS011;12163;49.316;6.092;2023-04-03T05:33:26;5.78;;;2.65;;
23952;SDS011;12163;49.316;6.092;2023-04-03T05:35:53;3.85;;;2.25;;
23952;SDS011;12163;49.316;6.092;2023-04-03T05:38:20;8.43;;;2.40;;
23952;SDS011;12163;49.316;6.092;2023-04-03T05:40:47;3.67;;;2.08;;
23952;SDS011;12163;49.316;6.092;2023-04-03T05:43:14;4.93;;;1.95;;
23952;SDS011;12163;49.316;6.092;2023-04-03T05:45:41;6.47;;;2.22;;
23952;SDS011;12163;49.316;6.092;2023-04-03T05:48:09;6.78;;;2.30;;
23952;SDS011;12163;49.316;6.092;2023-04-03T05:50:37;6.82;;;2.10;;
23952;SDS011;12163;49.316;6.092;2023-04-03T05:53:09;4.63;;;1.95;;
23952;SDS011;12163;49.316;6.092;2023-04-03T05:55:48;6.38;;;2.08;;
23952;SDS011;12163;49.316;6.092;2023-04-03T05:58:15;6.35;;;2.22;;
23952;SDS011;12163;49.316;6.092;2023-04-03T06:00:41;7.15;;;2.10;;
23952;SDS011;12163;49.316;6.092;2023-04-03T06:03:08;6.63;;;2.38;;
23952;SDS011;12163;49.316;6.092;2023-04-03T06:05:35;3.35;;;1.55;;
23952;SDS011;12163;49.316;6.092;2023-04-03T06:08:02;3.95;;;1.98;;
23952;SDS011;12163;49.316;6.092;2023-04-03T06:10:29;3.55;;;1.70;;
23952;SDS011;12163;49.316;6.092;2023-04-03T06:12:56;4.53;;;1.90;;
23952;SDS011;12163;49.316;6.092;2023-04-03T06:15:23;5.28;;;1.98;;
23952;SDS011;12163;49.316;6.092;2023-04-03T06:17:50;3.65;;;1.70;;
23952;SDS011;12163;49.316;6.092;2023-04-03T06:20:16;4.05;;;1.80;;
23952;SDS011;12163;49.316;6.092;2023-04-03T06:22:43;5.38;;;2.00;;
23952;SDS011;12163;49.316;6.092;2023-04-03T06:25:09;4.38;;;1.90;;
23952;SDS011;12163;49.316;6.092;2023-04-03T06:27:37;4.78;;;1.92;;
23952;SDS011;12163;49.316;6.092;2023-04-03T06:30:05;6.15;;;1.80;;
23952;SDS011;12163;49.316;6.092;2023-04-03T06:32:33;4.22;;;1.67;;
23952;SDS011;12163;49.316;6.092;2023-04-03T06:34:59;7.78;;;1.92;;
23952;SDS011;12163;49.316;6.092;2023-04-03T06:37:26;4.60;;;1.90;;
23952;SDS011;12163;49.316;6.092;2023-04-03T06:39:55;4.20;;;1.73;;
23952;SDS011;12163;49.316;6.092;2023-04-03T06:42:22;7.05;;;1.85;;
23952;SDS011;12163;49.316;6.092;2023-04-03T06:44:49;6.97;;;1.92;;
23952;SDS011;12163;49.316;6.092;2023-04-03T06:47:15;5.97;;;2.60;;
23952;SDS011;12163;49.316;6.092;2023-04-03T06:49:43;6.22;;;2.20;;
23952;SDS011;12163;49.316;6.092;2023-04-03T06:52:10;2.63;;;1.63;;
23952;SDS011;12163;49.316;6.092;2023-04-03T06:54:38;4.85;;;2.10;;
23952;SDS011;12163;49.316;6.092;2023-04-03T06:57:06;10.57;;;2.25;;
23952;SDS011;12163;49.316;6.092;2023-04-03T06:59:33;6.07;;;2.00;;
23952;SDS011;12163;49.316;6.092;2023-04-03T07:02:01;5.10;;;1.88;;
23952;SDS011;12163;49.316;6.092;2023-04-03T07:04:27;5.75;;;1.55;;
23952;SDS011;12163;49.316;6.092;2023-04-03T07:06:54;5.63;;;1.60;;
23952;SDS011;12163;49.316;6.092;2023-04-03T07:09:21;6.18;;;1.75;;
23952;SDS011;12163;49.316;6.092;2023-04-03T07:11:47;7.65;;;2.00;;
23952;SDS011;12163;49.316;6.092;2023-04-03T07:14:14;5.32;;;2.05;;
23952;SDS011;12163;49.316;6.092;2023-04-03T07:16:41;3.38;;;1.70;;
23952;SDS011;12163;49.316;6.092;2023-04-03T07:19:08;2.80;;;1.52;;
23952;SDS011;12163;49.316;6.092;2023-04-03T07:21:35;3.55;;;1.80;;
23952;SDS011;12163;49.316;6.092;2023-04-03T07:24:02;3.42;;;1.33;;
23952;SDS011;12163;49.316;6.092;2023-04-03T07:26:28;5.72;;;1.90;;
23952;SDS011;12163;49.316;6.092;2023-04-03T07:28:55;4.43;;;1.95;;
23952;SDS011;12163;49.316;6.092;2023-04-03T07:31:22;5.78;;;1.80;;
23952;SDS011;12163;49.316;6.092;2023-04-03T07:33:49;4.90;;;1.90;;
23952;SDS011;12163;49.316;6.092;2023-04-03T07:36:17;2.25;;;1.50;;
23952;SDS011;12163;49.316;6.092;2023-04-03T07:38:45;6.72;;;1.75;;
23952;SDS011;12163;49.316;6.092;2023-04-03T07:41:13;5.55;;;2.30;;
23952;SDS011;12163;49.316;6.092;2023-04-03T07:43:41;5.15;;;1.75;;
23952;SDS011;12163;49.316;6.092;2023-04-03T07:46:08;6.15;;;1.90;;
23952;SDS011;12163;49.316;6.092;2023-04-03T07:48:35;6.82;;;1.77;;
23952;SDS011;12163;49.316;6.092;2023-04-03T07:51:02;5.20;;;1.83;;
23952;SDS011;12163;49.316;6.092;2023-04-03T07:53:31;5.32;;;1.75;;
23952;SDS011;12163;49.316;6.092;2023-04-03T07:55:58;3.50;;;1.70;;
23952;SDS011;12163;49.316;6.092;2023-04-03T07:58:25;6.38;;;1.85;;
23952;SDS011;12163;49.316;6.092;2023-04-03T08:00:52;4.78;;;1.60;;
23952;SDS011;12163;49.316;6.092;2023-04-03T08:03:19;8.65;;;1.95;;
23952;SDS011;12163;49.316;6.092;2023-04-03T08:05:46;9.82;;;2.22;;
23952;SDS011;12163;49.316;6.092;2023-04-03T08:08:19;5.45;;;2.17;;
23952;SDS011;12163;49.316;6.092;2023-04-03T08:10:48;6.65;;;2.50;;
23952;SDS011;12163;49.316;6.092;2023-04-03T08:13:16;5.55;;;2.28;;
23952;SDS011;12163;49.316;6.092;2023-04-03T08:15:43;7.80;;;2.65;;
23952;SDS011;12163;49.316;6.092;2023-04-03T08:18:10;8.73;;;1.98;;
23952;SDS011;12163;49.316;6.092;2023-04-03T08:20:37;2.92;;;1.80;;
23952;SDS011;12163;49.316;6.092;2023-04-03T08:23:05;4.32;;;1.80;;
23952;SDS011;12163;49.316;6.092;2023-04-03T08:25:31;4.65;;;1.63;;
23952;SDS011;12163;49.316;6.092;2023-04-03T08:27:58;3.80;;;1.83;;
23952;SDS011;12163;49.316;6.092;2023-04-03T08:30:25;3.15;;;1.65;;
23952;SDS011;12163;49.316;6.092;2023-04-03T08:32:52;4.88;;;1.90;;
23952;SDS011;12163;49.316;6.092;2023-04-03T08:35:19;3.10;;;1.58;;
23952;SDS011;12163;49.316;6.092;2023-04-03T08:37:46;3.97;;;1.75;;
23952;SDS011;12163;49.316;6.092;2023-04-03T08:40:14;4.15;;;1.70;;
23952;SDS011;12163;49.316;6.092;2023-04-03T08:45:33;5.35;;;1.67;;
23952;SDS011;12163;49.316;6.092;2023-04-03T08:48:04;3.53;;;1.50;;
23952;SDS011;12163;49.316;6.092;2023-04-03T08:50:41;3.25;;;1.70;;
23952;SDS011;12163;49.316;6.092;2023-04-03T08:53:14;3.03;;;1.70;;
23952;SDS011;12163;49.316;6.092;2023-04-03T08:55:44;7.85;;;1.90;;
23952;SDS011;12163;49.316;6.092;2023-04-03T08:58:15;4.72;;;1.75;;
23952;SDS011;12163;49.316;6.092;2023-04-03T09:03:17;3.78;;;1.70;;
23952;SDS011;12163;49.316;6.092;2023-04-03T09:08:27;5.25;;;2.03;;
23952;SDS011;12163;49.316;6.092;2023-04-03T09:17:34;5.50;;;1.80;;
23952;SDS011;12163;49.316;6.092;2023-04-03T09:22:31;6.78;;;2.10;;
23952;SDS011;12163;49.316;6.092;2023-04-03T09:30:11;7.10;;;1.88;;
23952;SDS011;12163;49.316;6.092;2023-04-03T09:32:46;5.07;;;1.75;;
23952;SDS011;12163;49.316;6.092;2023-04-03T09:40:37;9.85;;;1.80;;
23952;SDS011;12163;49.316;6.092;2023-04-03T09:43:22;5.13;;;1.83;;
23952;SDS011;12163;49.316;6.092;2023-04-03T09:45:51;7.30;;;1.75;;
23952;SDS011;12163;49.316;6.092;2023-04-03T09:53:27;5.28;;;2.22;;
23952;SDS011;12163;49.316;6.092;2023-04-03T09:55:57;3.47;;;1.60;;
23952;SDS011;12163;49.316;6.092;2023-04-03T09:58:28;5.53;;;1.60;;
23952;SDS011;12163;49.316;6.092;2023-04-03T10:04:15;4.53;;;1.75;;
23952;SDS011;12163;49.316;6.092;2023-04-03T10:06:48;6.95;;;2.00;;
23952;SDS011;12163;49.316;6.092;2023-04-03T10:09:18;3.45;;;1.52;;
23952;SDS011;12163;49.316;6.092;2023-04-03T10:12:00;3.03;;;1.30;;
23952;SDS011;12163;49.316;6.092;2023-04-03T10:14:28;3.10;;;1.45;;
23952;SDS011;12163;49.316;6.092;2023-04-03T10:28:27;2.97;;;1.58;;
23952;SDS011;12163;49.316;6.092;2023-04-03T10:31:03;5.30;;;1.98;;
23952;SDS011;12163;49.316;6.092;2023-04-03T10:33:39;3.35;;;1.40;;
23952;SDS011;12163;49.316;6.092;2023-04-03T10:36:42;4.32;;;1.42;;
23952;SDS011;12163;49.316;6.092;2023-04-03T10:39:24;3.38;;;1.55;;
23952;SDS011;12163;49.316;6.092;2023-04-03T10:42:15;6.93;;;1.95;;
23952;SDS011;12163;49.316;6.092;2023-04-03T10:47:46;4.13;;;1.50;;
23952;SDS011;12163;49.316;6.092;2023-04-03T10:58:20;5.68;;;1.50;;
23952;SDS011;12163;49.316;6.092;2023-04-03T11:00:57;5.05;;;1.73;;
23952;SDS011;12163;49.316;6.092;2023-04-03T11:03:30;4.60;;;1.73;;
23952;SDS011;12163;49.316;6.092;2023-04-03T11:06:11;13.07;;;1.60;;
23952;SDS011;12163;49.316;6.092;2023-04-03T11:08:50;3.45;;;1.35;;
23952;SDS011;12163;49.316;6.092;2023-04-03T11:11:38;4.82;;;1.73;;
23952;SDS011;12163;49.316;6.092;2023-04-03T11:22:23;5.13;;;1.58;;
23952;SDS011;12163;49.316;6.092;2023-04-03T11:24:56;7.25;;;1.80;;
23952;SDS011;12163;49.316;6.092;2023-04-03T11:27:30;4.38;;;1.60;;
23952;SDS011;12163;49.316;6.092;2023-04-03T11:30:05;3.10;;;1.30;;
23952;SDS011;12163;49.316;6.092;2023-04-03T11:35:49;4.53;;;1.60;;
23952;SDS011;12163;49.316;6.092;2023-04-03T11:38:27;6.40;;;1.77;;
23952;SDS011;12163;49.316;6.092;2023-04-03T11:41:00;7.75;;;1.75;;
23952;SDS011;12163;49.316;6.092;2023-04-03T11:43:30;5.88;;;1.67;;
23952;SDS011;12163;49.316;6.092;2023-04-03T11:46:04;5.50;;;1.63;;
23952;SDS011;12163;49.316;6.092;2023-04-03T11:53:43;6.72;;;1.55;;
23952;SDS011;12163;49.316;6.092;2023-04-03T12:04:15;5.85;;;1.73;;
23952;SDS011;12163;49.316;6.092;2023-04-03T12:09:23;5.47;;;1.77;;
23952;SDS011;12163;49.316;6.092;2023-04-03T12:11:56;5.32;;;1.50;;
23952;SDS011;12163;49.316;6.092;2023-04-03T12:14:24;4.40;;;1.52;;
23952;SDS011;12163;49.316;6.092;2023-04-03T12:16:55;5.35;;;1.63;;
23952;SDS011;12163;49.316;6.092;2023-04-03T12:22:08;5.07;;;1.60;;
23952;SDS011;12163;49.316;6.092;2023-04-03T12:24:40;3.92;;;1.63;;
23952;SDS011;12163;49.316;6.092;2023-04-03T12:27:23;4.35;;;1.60;;
23952;SDS011;12163;49.316;6.092;2023-04-03T12:29:59;9.88;;;1.50;;
23952;SDS011;12163;49.316;6.092;2023-04-03T12:32:51;4.40;;;1.70;;
23952;SDS011;12163;49.316;6.092;2023-04-03T12:35:40;4.03;;;1.67;;
23952;SDS011;12163;49.316;6.092;2023-04-03T12:46:53;4.22;;;1.65;;
23952;SDS011;12163;49.316;6.092;2023-04-03T12:51:52;4.07;;;1.42;;
23952;SDS011;12163;49.316;6.092;2023-04-03T12:54:22;2.90;;;1.65;;
23952;SDS011;12163;49.316;6.092;2023-04-03T12:57:08;5.97;;;2.03;;
23952;SDS011;12163;49.316;6.092;2023-04-03T12:59:41;4.95;;;1.73;;
23952;SDS011;12163;49.316;6.092;2023-04-03T13:04:54;3.40;;;1.67;;
23952;SDS011;12163;49.316;6.092;2023-04-03T13:07:28;6.85;;;1.80;;
23952;SDS011;12163;49.316;6.092;2023-04-03T13:12:33;3.85;;;1.60;;
23952;SDS011;12163;49.316;6.092;2023-04-03T13:15:11;4.32;;;1.52;;
23952;SDS011;12163;49.316;6.092;2023-04-03T13:17:49;3.47;;;1.70;;
23952;SDS011;12163;49.316;6.092;2023-04-03T13:25:34;6.65;;;1.80;;
23952;SDS011;12163;49.316;6.092;2023-04-03T13:28:04;3.88;;;1.63;;
23952;SDS011;12163;49.316;6.092;2023-04-03T13:30:39;7.38;;;1.52;;
23952;SDS011;12163;49.316;6.092;2023-04-03T13:33:21;4.32;;;1.70;;
23952;SDS011;12163;49.316;6.092;2023-04-03T13:39:01;4.45;;;1.45;;
23952;SDS011;12163;49.316;6.092;2023-04-03T13:41:38;4.70;;;1.35;;
23952;SDS011;12163;49.316;6.092;2023-04-03T13:46:50;5.03;;;1.92;;
23952;SDS011;12163;49.316;6.092;2023-04-03T13:49:38;4.65;;;1.70;;
23952;SDS011;12163;49.316;6.092;2023-04-03T13:54:58;3.05;;;1.50;;
23952;SDS011;12163;49.316;6.092;2023-04-03T13:57:28;6.65;;;2.05;;
23952;SDS011;12163;49.316;6.092;2023-04-03T13:59:55;5.00;;;1.60;;
23952;SDS011;12163;49.316;6.092;2023-04-03T14:02:33;4.45;;;1.50;;
23952;SDS011;12163;49.316;6.092;2023-04-03T14:05:01;3.78;;;1.63;;
23952;SDS011;12163;49.316;6.092;2023-04-03T14:22:22;4.30;;;1.50;;
23952;SDS011;12163;49.316;6.092;2023-04-03T14:24:50;3.37;;;1.37;;
23952;SDS011;12163;49.316;6.092;2023-04-03T14:29:51;5.33;;;1.80;;
23952;SDS011;12163;49.316;6.092;2023-04-03T14:32:21;5.95;;;1.90;;
23952;SDS011;12163;49.316;6.092;2023-04-03T14:34:49;6.93;;;1.77;;
23952;SDS011;12163;49.316;6.092;2023-04-03T14:37:18;4.35;;;1.65;;
23952;SDS011;12163;49.316;6.092;2023-04-03T14:39:48;4.30;;;1.58;;
23952;SDS011;12163;49.316;6.092;2023-04-03T14:42:23;3.83;;;1.83;;
23952;SDS011;12163;49.316;6.092;2023-04-03T14:44:52;4.85;;;1.73;;
23952;SDS011;12163;49.316;6.092;2023-04-03T14:47:19;4.00;;;1.88;;
23952;SDS011;12163;49.316;6.092;2023-04-03T14:49:58;4.43;;;1.70;;
23952;SDS011;12163;49.316;6.092;2023-04-03T14:52:34;7.60;;;4.15;;
23952;SDS011;12163;49.316;6.092;2023-04-03T14:55:02;10.95;;;7.25;;
23952;SDS011;12163;49.316;6.092;2023-04-03T14:57:32;16.63;;;9.97;;
23952;SDS011;12163;49.316;6.092;2023-04-03T14:59:58;35.75;;;22.25;;
23952;SDS011;12163;49.316;6.092;2023-04-03T15:02:31;8.67;;;4.63;;
23952;SDS011;12163;49.316;6.092;2023-04-03T15:05:00;6.70;;;2.40;;
23952;SDS011;12163;49.316;6.092;2023-04-03T15:07:31;10.55;;;5.80;;
23952;SDS011;12163;49.316;6.092;2023-04-03T15:10:06;6.68;;;3.25;;
23952;SDS011;12163;49.316;6.092;2023-04-03T15:12:42;5.82;;;3.35;;
23952;SDS011;12163;49.316;6.092;2023-04-03T15:15:09;9.82;;;4.18;;
23952;SDS011;12163;49.316;6.092;2023-04-03T15:17:36;10.57;;;1.90;;
23952;SDS011;12163;49.316;6.092;2023-04-03T15:22:31;4.93;;;1.75;;
23952;SDS011;12163;49.316;6.092;2023-04-03T15:24:58;5.05;;;1.73;;
23952;SDS011;12163;49.316;6.092;2023-04-03T15:27:25;6.70;;;1.90;;
23952;SDS011;12163;49.316;6.092;2023-04-03T15:32:17;5.30;;;1.80;;
23952;SDS011;12163;49.316;6.092;2023-04-03T15:34:44;5.70;;;1.70;;
23952;SDS011;12163;49.316;6.092;2023-04-03T15:37:11;10.45;;;2.15;;
23952;SDS011;12163;49.316;6.092;2023-04-03T15:39:37;4.68;;;1.92;;
23952;SDS011;12163;49.316;6.092;2023-04-03T15:42:04;4.78;;;1.63;;
23952;SDS011;12163;49.316;6.092;2023-04-03T15:44:35;5.60;;;2.13;;
23952;SDS011;12163;49.316;6.092;2023-04-03T15:47:02;5.60;;;1.67;;
23952;SDS011;12163;49.316;6.092;2023-04-03T15:49:29;6.60;;;2.38;;
23952;SDS011;12163;49.316;6.092;2023-04-03T15:51:58;7.53;;;2.20;;
23952;SDS011;12163;49.316;6.092;2023-04-03T15:54:25;5.50;;;1.85;;
23952;SDS011;12163;49.316;6.092;2023-04-03T15:56:52;7.72;;;1.92;;
23952;SDS011;12163;49.316;6.092;2023-04-03T15:59:19;4.78;;;1.83;;
23952;SDS011;12163;49.316;6.092;2023-04-03T16:01:46;9.43;;;2.45;;
23952;SDS011;12163;49.316;6.092;2023-04-03T16:04:13;7.43;;;3.38;;
23952;SDS011;12163;49.316;6.092;2023-04-03T16:06:42;5.13;;;1.88;;
23952;SDS011;12163;49.316;6.092;2023-04-03T16:09:09;2.25;;;1.60;;
23952;SDS011;12163;49.316;6.092;2023-04-03T16:11:36;4.80;;;1.40;;
23952;SDS011;12163;49.316;6.092;2023-04-03T16:14:08;4.38;;;2.08;;
23952;SDS011;12163;49.316;6.092;2023-04-03T16:16:35;6.97;;;4.05;;
23952;SDS011;12163;49.316;6.092;2023-04-03T16:19:03;11.30;;;2.47;;
23952;SDS011;12163;49.316;6.092;2023-04-03T16:21:31;6.57;;;2.72;;
23952;SDS011;12163;49.316;6.092;2023-04-03T16:23:59;8.02;;;3.72;;
23952;SDS011;12163;49.316;6.092;2023-04-03T16:26:26;6.95;;;2.42;;
23952;SDS011;12163;49.316;6.092;2023-04-03T16:28:53;6.57;;;1.88;;
23952;SDS011;12163;49.316;6.092;2023-04-03T16:31:20;5.35;;;2.58;;
23952;SDS011;12163;49.316;6.092;2023-04-03T16:33:48;7.15;;;2.47;;
23952;SDS011;12163;49.316;6.092;2023-04-03T16:36:14;7.13;;;2.30;;
23952;SDS011;12163;49.316;6.092;2023-04-03T16:38:41;7.47;;;2.90;;
23952;SDS011;12163;49.316;6.092;2023-04-03T16:41:08;5.38;;;2.25;;
23952;SDS011;12163;49.316;6.092;2023-04-03T16:43:35;7.30;;;1.90;;
23952;SDS011;12163;49.316;6.092;2023-04-03T16:46:03;9.30;;;4.88;;
23952;SDS011;12163;49.316;6.092;2023-04-03T16:48:30;15.82;;;9.07;;
23952;SDS011;12163;49.316;6.092;2023-04-03T16:50:56;15.25;;;6.38;;
23952;SDS011;12163;49.316;6.092;2023-04-03T16:53:23;15.02;;;5.22;;
23952;SDS011;12163;49.316;6.092;2023-04-03T16:55:51;49.65;;;21.83;;
23952;SDS011;12163;49.316;6.092;2023-04-03T16:58:18;57.20;;;23.48;;
23952;SDS011;12163;49.316;6.092;2023-04-03T17:00:49;11.07;;;6.35;;
23952;SDS011;12163;49.316;6.092;2023-04-03T17:03:15;6.03;;;2.47;;
23952;SDS011;12163;49.316;6.092;2023-04-03T17:05:42;6.10;;;2.78;;
23952;SDS011;12163;49.316;6.092;2023-04-03T17:08:09;4.28;;;1.85;;
23952;SDS011;12163;49.316;6.092;2023-04-03T17:10:36;3.75;;;1.70;;
23952;SDS011;12163;49.316;6.092;2023-04-03T17:13:03;6.15;;;2.20;;
23952;SDS011;12163;49.316;6.092;2023-04-03T17:15:30;13.93;;;6.47;;
23952;SDS011;12163;49.316;6.092;2023-04-03T17:17:56;6.85;;;1.90;;
23952;SDS011;12163;49.316;6.092;2023-04-03T17:20:23;8.95;;;4.07;;
23952;SDS011;12163;49.316;6.092;2023-04-03T17:22:50;6.90;;;2.03;;
23952;SDS011;12163;49.316;6.092;2023-04-03T17:25:16;5.80;;;1.70;;
23952;SDS011;12163;49.316;6.092;2023-04-03T17:27:43;6.15;;;2.80;;
23952;SDS011;12163;49.316;6.092;2023-04-03T17:30:10;4.45;;;2.25;;